Time;durP1;ratioP1;P1;durP2;ratioP2;P2;SDS_P1;SDS_P2;PMS_P1;PMS_P2;Temp;Humidity;BMP_temperature;BMP_pressure;BME280_temperature;BME280_humidity;BME280_pressure;Samples;Min_cycle;Max_cycle;Signal;HPM_P1;HPM_P2
2021/06/17 00:00:18;;;;;;;9.20;7.70;;;;;;;22.19;72.77;99621.06;5015557;28;20049;-80
2021/06/17 00:02:47;;;;;;;10.75;7.72;;;;;;;22.15;73.09;99624.28;5016515;28;20387;-79
2021/06/17 00:05:16;;;;;;;11.60;7.40;;;;;;;22.19;73.05;99625.63;5016383;28;20049;-78
2021/06/17 00:07:46;;;;;;;8.50;7.65;;;;;;;22.19;72.82;99623.75;5015378;28;20068;-79
2021/06/17 00:10:30;;;;;;;12.52;7.43;;;;;;;22.20;72.37;99616.44;5015174;28;20107;-78
2021/06/17 00:13:00;;;;;;;10.10;7.20;;;;;;;22.14;72.28;99617.16;5016039;28;20053;-80
2021/06/17 00:15:28;;;;;;;8.55;6.72;;;;;;;22.13;72.26;99619.06;5016254;28;20434;-78
2021/06/17 00:17:55;;;;;;;14.27;6.85;;;;;;;22.06;72.55;99612.66;5015778;28;20053;-79
2021/06/17 00:20:23;;;;;;;11.15;6.80;;;;;;;22.05;72.39;99614.53;5027872;28;20398;-78
2021/06/17 00:22:50;;;;;;;16.65;7.38;;;;;;;22.01;72.16;99613.19;5034446;28;20056;-78
2021/06/17 00:25:17;;;;;;;12.45;7.32;;;;;;;22.02;72.53;99614.91;5035720;28;20053;-80
2021/06/17 00:27:44;;;;;;;9.35;7.25;;;;;;;21.97;72.57;99603.72;5035480;28;20053;-80
2021/06/17 00:30:13;;;;;;;8.63;7.00;;;;;;;21.77;72.58;99563.47;5035894;28;20057;-79
2021/06/17 00:32:40;;;;;;;11.02;7.70;;;;;;;21.85;72.90;99597.88;5034704;28;20501;-80
2021/06/17 00:35:08;;;;;;;9.68;7.78;;;;;;;21.86;73.06;99604.16;5018442;28;20057;-79
2021/06/17 00:37:37;;;;;;;14.73;7.40;;;;;;;21.81;73.06;99604.69;5033978;28;20328;-78
2021/06/17 00:40:09;;;;;;;11.95;7.15;;;;;;;21.75;72.88;99595.41;5035344;28;20095;-79
2021/06/17 00:42:38;;;;;;;9.23;6.97;;;;;;;21.74;73.39;99590.16;5035464;28;20115;-79
2021/06/17 00:45:11;;;;;;;8.15;6.95;;;;;;;21.72;73.27;99582.19;5035253;28;20431;-79
2021/06/17 00:47:39;;;;;;;12.55;6.88;;;;;;;21.65;72.77;99582.03;5035032;28;20057;-79
2021/06/17 00:50:08;;;;;;;11.00;6.75;;;;;;;21.69;72.51;99590.72;5035623;28;20123;-79
2021/06/17 00:52:36;;;;;;;9.43;5.97;;;;;;;21.62;71.52;99557.13;5035230;28;20057;-80
2021/06/17 00:55:03;;;;;;;8.32;6.10;;;;;;;21.69;71.64;99575.25;5035160;28;20045;-79
2021/06/17 00:57:30;;;;;;;13.27;6.15;;;;;;;21.63;71.59;99575.09;5034150;28;20096;-80
2021/06/17 00:59:56;;;;;;;10.13;6.10;;;;;;;21.62;71.08;99587.00;5034107;28;20111;-78
2021/06/17 01:02:23;;;;;;;7.88;5.60;;;;;;;21.57;71.14;99579.38;5035018;28;20054;-77
2021/06/17 01:04:50;;;;;;;7.20;5.88;;;;;;;21.61;70.43;99578.00;5033940;28;20057;-78
2021/06/17 01:07:47;;;;;;;8.05;5.60;;;;;;;21.60;70.01;99578.16;5017944;28;20050;-79
2021/06/17 01:10:44;;;;;;;9.93;6.18;;;;;;;21.56;69.46;99573.09;5035233;28;20057;-79
2021/06/17 01:13:48;;;;;;;8.10;5.63;;;;;;;21.53;69.23;99586.19;5035346;28;20053;-79
2021/06/17 01:16:37;;;;;;;9.90;6.05;;;;;;;21.58;69.34;99581.06;5035410;28;20061;-79
2021/06/17 01:19:30;;;;;;;9.20;5.82;;;;;;;21.50;68.89;99581.09;5032389;28;20059;-78
2021/06/17 01:21:57;;;;;;;9.88;5.65;;;;;;;21.61;68.86;99599.72;5005550;28;20336;-77
2021/06/17 01:25:03;;;;;;;8.32;5.88;;;;;;;21.46;69.22;99594.19;5015332;28;20053;-78
2021/06/17 01:27:58;;;;;;;11.95;5.57;;;;;;;21.42;68.89;99598.31;5014038;28;20129;-78
2021/06/17 01:30:26;;;;;;;8.43;5.07;;;;;;;21.41;68.47;99600.16;5015120;28;20053;-78
2021/06/17 01:32:58;;;;;;;8.75;5.45;;;;;;;21.44;67.73;99602.53;5015123;28;20099;-78
2021/06/17 01:35:27;;;;;;;8.27;5.40;;;;;;;21.48;66.83;99603.03;5014201;28;20443;-78
2021/06/17 01:37:58;;;;;;;9.63;5.70;;;;;;;21.43;67.05;99600.84;5014844;28;20081;-79
2021/06/17 01:40:27;;;;;;;6.15;5.32;;;;;;;21.37;67.14;99604.28;5015146;28;20509;-78
2021/06/17 01:42:56;;;;;;;6.57;4.93;;;;;;;21.17;67.06;99568.59;5015424;28;20050;-79
2021/06/17 01:45:24;;;;;;;7.47;4.90;;;;;;;21.35;66.55;99594.63;5021401;28;20058;-78
2021/06/17 01:47:53;;;;;;;8.02;5.05;;;;;;;21.26;66.81;99581.09;5001300;28;20100;-78
2021/06/17 01:50:24;;;;;;;5.95;5.30;;;;;;;21.25;66.18;99590.25;4999965;28;20054;-79
2021/06/17 01:52:53;;;;;;;7.68;5.35;;;;;;;21.30;66.21;99598.72;4999214;28;20054;-79
2021/06/17 01:55:27;;;;;;;7.28;4.45;;;;;;;21.26;66.08;99596.53;4982841;28;20097;-78
2021/06/17 01:57:54;;;;;;;5.78;5.03;;;;;;;21.29;65.54;99594.31;5000219;28;20054;-78
2021/06/17 02:00:21;;;;;;;5.72;5.03;;;;;;;21.19;65.55;99592.84;4999933;28;20054;-78
2021/06/17 02:02:49;;;;;;;6.40;4.20;;;;;;;21.17;65.42;99603.84;4999581;28;20047;-79
2021/06/17 02:05:16;;;;;;;11.05;4.63;;;;;;;21.15;65.79;99603.19;4999565;28;20113;-78
2021/06/17 02:07:44;;;;;;;6.95;4.63;;;;;;;21.17;65.46;99602.00;4998080;28;20329;-78
2021/06/17 02:10:12;;;;;;;5.07;3.97;;;;;;;21.06;65.42;99585.25;4998121;28;20105;-78
2021/06/17 02:12:41;;;;;;;6.13;4.40;;;;;;;21.07;65.90;99589.69;4999094;28;20069;-79
2021/06/17 02:15:08;;;;;;;8.57;4.22;;;;;;;21.05;65.47;99594.41;4998988;28;20054;-79
2021/06/17 02:17:38;;;;;;;5.35;3.80;;;;;;;21.02;65.75;99593.75;4998627;28;20065;-78
2021/06/17 02:20:07;;;;;;;9.27;4.45;;;;;;;20.95;65.96;99597.34;5009205;28;20696;-78
2021/06/17 02:22:40;;;;;;;7.22;3.60;;;;;;;20.95;65.45;99586.50;5018263;28;20052;-77
2021/06/17 02:25:08;;;;;;;6.22;4.20;;;;;;;20.99;65.69;99598.69;5018516;28;20076;-79
2021/06/17 02:27:37;;;;;;;7.50;4.18;;;;;;;21.03;64.74;99595.44;5017106;28;20177;-78
2021/06/17 02:30:08;;;;;;;8.65;3.80;;;;;;;21.14;62.79;99590.66;5016954;28;20519;-78
2021/06/17 02:32:52;;;;;;;6.10;4.00;;;;;;;21.09;65.13;99583.03;5017987;28;20054;-78
2021/06/17 02:35:22;;;;;;;7.20;3.75;;;;;;;20.98;65.20;99583.44;5018010;28;20100;-78
2021/06/17 02:37:54;;;;;;;6.82;3.70;;;;;;;20.97;64.85;99576.31;5016795;28;20123;-80
2021/06/17 02:40:23;;;;;;;6.60;3.80;;;;;;;20.97;64.48;99579.88;5000816;28;20129;-78
2021/06/17 02:43:03;;;;;;;5.15;3.47;;;;;;;21.08;64.00;99575.91;5017161;28;20045;-79
2021/06/17 02:45:31;;;;;;;7.70;3.90;;;;;;;21.03;64.30;99567.47;5017310;28;20065;-78
2021/06/17 02:47:58;;;;;;;9.55;3.80;;;;;;;20.99;64.21;99558.84;5037383;28;20127;-78
2021/06/17 02:50:25;;;;;;;8.65;3.85;;;;;;;21.01;64.44;99559.50;5037381;28;20053;-78
2021/06/17 02:52:52;;;;;;;9.68;3.63;;;;;;;21.05;64.06;99561.84;5037463;28;20053;-79
2021/06/17 02:55:19;;;;;;;7.63;3.92;;;;;;;21.00;64.53;99568.69;5036191;28;20057;-80
2021/06/17 02:58:00;;;;;;;7.88;4.50;;;;;;;21.07;63.92;99566.09;5036186;28;20053;-79
2021/06/17 03:00:29;;;;;;;8.52;3.75;;;;;;;21.01;64.31;99556.81;5037143;28;20061;-79
2021/06/17 03:03:10;;;;;;;8.27;3.72;;;;;;;21.03;64.21;99562.88;5037197;28;20099;-78
2021/06/17 03:05:52;;;;;;;7.10;3.80;;;;;;;21.07;62.57;99552.53;5037009;28;20061;-79
2021/06/17 03:08:27;;;;;;;8.38;3.72;;;;;;;21.07;62.57;99547.09;5037259;28;20049;-78
2021/06/17 03:10:59;;;;;;;13.30;3.50;;;;;;;21.19;62.43;99565.69;5037041;28;20049;-78
2021/06/17 03:13:29;;;;;;;4.93;3.50;;;;;;;21.31;60.43;99564.28;5038053;28;20057;-78
2021/06/17 03:15:56;;;;;;;7.93;3.67;;;;;;;21.02;59.58;99495.22;5038100;28;20049;-79
2021/06/17 03:18:26;;;;;;;4.72;3.08;;;;;;;21.40;60.08;99551.47;5037168;28;20050;-80
2021/06/17 03:20:57;;;;;;;6.55;3.58;;;;;;;21.41;60.79;99570.31;5019458;28;20085;-77
2021/06/17 03:23:27;;;;;;;4.88;3.38;;;;;;;21.36;61.07;99556.41;5015988;28;20053;-77
2021/06/17 03:25:56;;;;;;;5.53;3.42;;;;;;;21.40;59.20;99551.47;5017310;28;20074;-78
2021/06/17 03:28:26;;;;;;;7.72;3.08;;;;;;;21.47;58.78;99565.19;5015905;28;20054;-78
2021/06/17 03:30:53;;;;;;;7.25;3.65;;;;;;;21.39;58.31;99538.94;5016161;28;20049;-78
2021/06/17 03:33:31;;;;;;;5.30;3.45;;;;;;;21.61;57.81;99552.72;5017047;28;20084;-78
2021/06/17 03:36:01;;;;;;;6.15;3.90;;;;;;;21.58;58.81;99548.50;5015973;28;20108;-78
2021/06/17 03:38:29;;;;;;;6.00;3.30;;;;;;;21.60;58.29;99546.44;5016635;28;20045;-78
2021/06/17 03:40:56;;;;;;;5.95;3.03;;;;;;;21.69;56.93;99556.22;5016716;28;20116;-78
2021/06/17 03:43:23;;;;;;;5.32;3.08;;;;;;;21.74;56.83;99552.13;5016798;28;20119;-78
2021/06/17 03:45:52;;;;;;;5.95;3.38;;;;;;;21.70;57.62;99555.19;5022943;28;20111;-78
2021/06/17 03:48:20;;;;;;;5.78;3.10;;;;;;;21.74;57.60;99555.72;5036607;28;20056;-78
2021/06/17 03:50:48;;;;;;;3.97;2.90;;;;;;;21.76;57.28;99552.78;5036322;28;20109;-78
2021/06/17 03:53:15;;;;;;;4.07;3.33;;;;;;;21.75;56.88;99546.53;5036308;28;20049;-78
2021/06/17 03:55:44;;;;;;;8.13;3.13;;;;;;;21.78;58.07;99554.28;5036316;28;20050;-79
2021/06/17 03:58:11;;;;;;;8.25;2.80;;;;;;;21.74;57.73;99550.28;5036331;28;20125;-79
2021/06/17 04:00:40;;;;;;;5.22;3.13;;;;;;;21.79;58.14;99550.56;5035045;28;20123;-78
2021/06/17 04:03:10;;;;;;;3.97;3.00;;;;;;;21.84;58.13;99548.13;5036348;28;20124;-79
2021/06/17 04:05:38;;;;;;;6.80;3.10;;;;;;;21.89;57.31;99557.63;5035840;28;20057;-78
2021/06/17 04:08:09;;;;;;;5.90;3.05;;;;;;;21.96;57.62;99553.16;5035382;28;20099;-79
2021/06/17 04:10:39;;;;;;;3.67;2.63;;;;;;;21.97;57.61;99549.41;5036157;28;20062;-79
2021/06/17 04:13:09;;;;;;;7.50;3.03;;;;;;;22.02;57.09;99543.41;5035241;28;20111;-79
2021/06/17 04:15:36;;;;;;;3.20;2.60;;;;;;;22.10;57.06;99549.63;5035786;28;20057;-78
2021/06/17 04:18:05;;;;;;;4.80;3.05;;;;;;;22.14;57.39;99558.25;5035838;28;20111;-78
2021/06/17 04:20:35;;;;;;;4.70;2.20;;;;;;;22.16;56.68;99552.63;5021541;28;20053;-78
2021/06/17 04:23:04;;;;;;;5.38;2.40;;;;;;;22.26;55.13;99561.34;5049778;28;20054;-78
2021/06/17 04:25:32;;;;;;;5.65;2.70;;;;;;;22.46;53.52;99558.94;5039442;28;20076;-78
2021/06/17 04:28:02;;;;;;;4.90;2.30;;;;;;;22.59;53.57;99561.03;5038556;28;20054;-77
2021/06/17 04:30:31;;;;;;;5.00;2.40;;;;;;;22.63;52.65;99556.91;5035990;28;20045;-77
2021/06/17 04:33:04;;;;;;;5.77;2.40;;;;;;;22.73;52.59;99553.91;5035737;28;20057;-78
2021/06/17 04:35:32;;;;;;;5.60;2.50;;;;;;;22.84;51.92;99552.59;5034302;28;20093;-79
2021/06/17 04:37:59;;;;;;;3.22;2.00;;;;;;;22.89;51.86;99561.00;5034945;28;20097;-79
2021/06/17 04:40:27;;;;;;;4.75;2.40;;;;;;;23.00;51.33;99561.56;5035308;28;20054;-79
2021/06/17 04:42:57;;;;;;;3.05;1.98;;;;;;;23.09;50.68;99560.41;5034476;28;20053;-79
2021/06/17 04:45:27;;;;;;;5.05;1.90;;;;;;;23.19;50.24;99558.25;5035641;28;20045;-79
2021/06/17 04:47:56;;;;;;;4.65;2.00;;;;;;;23.23;50.46;99555.97;5035733;28;20049;-79
2021/06/17 04:50:23;;;;;;;2.20;1.98;;;;;;;23.11;50.56;99546.63;5035362;28;20083;-79
2021/06/17 04:52:49;;;;;;;7.00;1.75;;;;;;;23.30;50.29;99564.25;5035445;28;20061;-79
2021/06/17 04:55:17;;;;;;;3.97;2.13;;;;;;;23.17;50.25;99544.00;5035308;28;20123;-79
2021/06/17 04:57:47;;;;;;;6.72;2.33;;;;;;;23.37;50.43;99556.16;5035330;28;20057;-80
2021/06/17 05:00:15;;;;;;;2.45;1.92;;;;;;;23.35;50.75;99560.97;5035310;28;20140;-80
2021/06/17 05:02:42;;;;;;;4.32;2.55;;;;;;;23.42;50.40;99570.06;5034085;28;20054;-79
2021/06/17 05:05:09;;;;;;;2.92;2.08;;;;;;;23.41;50.41;99558.31;5019712;28;20050;-79
2021/06/17 05:12:53;;;;;;;4.13;2.10;;;;;;;23.57;49.65;99583.59;5019353;28;20428;-79
2021/06/17 05:15:20;;;;;;;5.97;2.08;;;;;;;23.56;50.07;99580.03;5020356;28;20339;-80
2021/06/17 05:17:47;;;;;;;7.63;2.20;;;;;;;23.58;49.77;99585.28;5016675;28;20099;-79
2021/06/17 05:20:14;;;;;;;3.10;2.00;;;;;;;23.63;50.15;99590.16;5019567;28;20057;-80
2021/06/17 05:22:42;;;;;;;6.15;1.98;;;;;;;23.63;49.63;99585.53;5018005;28;20100;-80
2021/06/17 05:25:10;;;;;;;4.70;2.00;;;;;;;23.68;49.87;99585.81;5019030;28;20096;-79
2021/06/17 05:27:39;;;;;;;2.95;2.00;;;;;;;23.68;49.81;99585.81;5001782;28;20428;-79
2021/06/17 05:30:08;;;;;;;4.78;2.08;;;;;;;23.74;50.53;99592.34;5019464;28;20046;-80
2021/06/17 05:32:35;;;;;;;3.63;1.95;;;;;;;23.80;49.58;99586.13;5020822;28;20057;-79
2021/06/17 05:35:03;;;;;;;5.13;1.98;;;;;;;23.81;49.46;99579.63;5034334;28;20045;-81
2021/06/17 05:37:30;;;;;;;3.75;2.20;;;;;;;23.76;50.21;99578.56;5023771;28;20046;-78
2021/06/17 05:39:56;;;;;;;7.30;2.00;;;;;;;23.80;50.36;99588.84;5026500;28;20045;-76
2021/06/17 05:42:23;;;;;;;5.90;2.65;;;;;;;23.62;51.22;99581.13;5028732;28;20053;-75
2021/06/17 05:44:52;;;;;;;4.25;2.40;;;;;;;23.71;52.50;99598.22;5027330;28;20053;-78
2021/06/17 05:47:20;;;;;;;5.38;2.25;;;;;;;23.83;51.23;99590.34;5025573;28;20443;-77
2021/06/17 05:49:47;;;;;;;4.47;2.15;;;;;;;23.90;51.67;99587.72;5030097;28;20092;-78
2021/06/17 05:52:14;;;;;;;5.30;2.30;;;;;;;23.99;51.06;99594.69;5025762;28;20046;-79
2021/06/17 05:54:41;;;;;;;6.07;2.72;;;;;;;24.30;50.25;99592.69;5018188;28;20084;-81
2021/06/17 05:57:10;;;;;;;6.93;2.45;;;;;;;24.54;50.22;99594.97;5026906;28;20501;-79
2021/06/17 05:59:37;;;;;;;5.55;2.40;;;;;;;24.68;49.67;99589.59;5022007;28;20060;-79
2021/06/17 06:02:04;;;;;;;6.63;2.45;;;;;;;24.87;48.98;99598.94;5031757;28;20103;-77
2021/06/17 06:04:32;;;;;;;5.88;2.63;;;;;;;25.02;48.40;99601.56;5031948;28;20113;-79
2021/06/17 06:06:58;;;;;;;6.05;2.50;;;;;;;25.20;48.48;99609.19;5033834;28;20124;-75
2021/06/17 06:09:25;;;;;;;7.28;2.42;;;;;;;25.35;47.98;99603.59;5029074;28;20052;-81
2021/06/17 06:11:52;;;;;;;9.13;2.45;;;;;;;25.43;47.73;99598.97;5026577;28;20053;-75
2021/06/17 06:14:19;;;;;;;3.60;2.33;;;;;;;25.45;48.13;99599.59;5033013;28;20108;-80
2021/06/17 06:16:46;;;;;;;3.15;2.40;;;;;;;25.46;47.41;99613.06;5026072;28;20145;-79
2021/06/17 06:19:13;;;;;;;4.00;2.40;;;;;;;25.49;46.99;99600.88;5021608;28;20041;-79
2021/06/17 06:21:40;;;;;;;2.42;2.05;;;;;;;25.43;48.83;99607.19;5019330;28;20124;-83
2021/06/17 06:24:08;;;;;;;4.53;2.20;;;;;;;25.43;47.67;99597.06;5001142;28;20053;-80
2021/06/17 06:26:35;;;;;;;5.55;2.47;;;;;;;25.54;46.32;99594.84;5015517;28;20072;-80
2021/06/17 06:29:02;;;;;;;7.50;2.45;;;;;;;25.50;46.80;99584.28;5015215;28;20112;-79
2021/06/17 06:31:29;;;;;;;4.38;2.60;;;;;;;25.53;47.55;99602.19;5016469;28;20053;-79
2021/06/17 06:33:55;;;;;;;9.45;2.50;;;;;;;25.32;47.10;99575.81;5017159;28;20427;-79
2021/06/17 06:36:22;;;;;;;2.85;2.53;;;;;;;25.46;46.70;99606.75;5017558;28;20050;-78
2021/06/17 06:38:49;;;;;;;5.28;2.42;;;;;;;25.50;46.51;99621.69;5002160;28;20141;-80
2021/06/17 06:41:15;;;;;;;3.20;2.25;;;;;;;25.28;46.62;99589.03;5016846;28;20050;-80
2021/06/17 06:43:42;;;;;;;7.40;2.35;;;;;;;25.37;47.45;99625.22;5016825;28;20100;-79
2021/06/17 06:46:09;;;;;;;6.40;2.78;;;;;;;25.31;46.75;99624.16;5017738;28;20140;-79
2021/06/17 06:48:39;;;;;;;6.72;2.63;;;;;;;25.34;47.57;99623.72;5018013;28;20060;-79
2021/06/17 06:51:05;;;;;;;6.77;2.63;;;;;;;25.40;46.44;99618.50;5016706;28;20050;-78
2021/06/17 06:53:32;;;;;;;5.05;2.50;;;;;;;25.30;47.48;99608.81;5017797;28;20053;-79
2021/06/17 06:55:59;;;;;;;5.05;2.20;;;;;;;25.08;48.49;99600.75;5017098;28;20058;-79
2021/06/17 06:58:26;;;;;;;5.18;2.50;;;;;;;25.04;48.85;99613.09;5017740;28;20053;-79
2021/06/17 07:00:53;;;;;;;4.13;2.20;;;;;;;24.98;49.01;99638.47;5018012;28;20096;-79
2021/06/17 07:03:20;;;;;;;4.35;2.58;;;;;;;25.00;50.06;99643.75;5017802;28;20045;-79
2021/06/17 07:05:46;;;;;;;3.80;2.38;;;;;;;25.07;50.39;99647.34;5017970;28;20058;-79
2021/06/17 07:08:14;;;;;;;3.70;2.30;;;;;;;25.26;47.24;99650.38;5016582;28;20064;-79
2021/06/17 07:10:43;;;;;;;6.22;2.30;;;;;;;25.43;47.56;99659.06;5016528;28;20057;-79
2021/06/17 07:13:11;;;;;;;12.13;2.90;;;;;;;25.54;47.38;99654.94;5017487;28;20342;-79
2021/06/17 07:15:38;;;;;;;5.47;2.50;;;;;;;25.59;47.41;99677.00;5017854;28;20093;-79
2021/06/17 07:18:05;;;;;;;6.75;2.60;;;;;;;25.64;47.67;99677.25;5017442;28;20050;-79
2021/06/17 07:20:32;;;;;;;4.60;2.70;;;;;;;25.70;48.12;99670.13;5030780;28;20041;-79
2021/06/17 07:22:59;;;;;;;6.40;2.47;;;;;;;25.71;48.22;99677.28;5037000;28;20053;-79
2021/06/17 07:25:27;;;;;;;7.38;2.95;;;;;;;25.72;48.03;99673.50;5036067;28;20474;-79
2021/06/17 07:27:54;;;;;;;7.25;3.35;;;;;;;25.73;48.64;99662.38;5036833;28;20088;-79
2021/06/17 07:30:22;;;;;;;4.60;2.38;;;;;;;25.82;47.68;99676.66;5037030;28;20339;-78
2021/06/17 07:32:49;;;;;;;6.22;3.38;;;;;;;25.92;48.25;99676.25;5035877;28;20053;-78
2021/06/17 07:35:16;;;;;;;4.30;2.75;;;;;;;25.89;48.90;99663.84;5037046;28;20103;-78
2021/06/17 07:37:43;;;;;;;5.60;2.47;;;;;;;25.94;47.95;99673.34;5036981;28;20053;-78
2021/06/17 07:40:13;;;;;;;6.20;2.63;;;;;;;25.99;48.21;99682.59;5036640;28;20095;-78
2021/06/17 07:42:39;;;;;;;11.43;3.00;;;;;;;26.01;48.20;99674.19;5035421;28;20049;-78
2021/06/17 07:45:08;;;;;;;6.13;2.72;;;;;;;26.02;48.08;99681.31;5036729;28;20057;-78
2021/06/17 07:47:36;;;;;;;5.28;2.70;;;;;;;26.05;48.99;99678.19;5035968;28;20394;-78
2021/06/17 07:50:05;;;;;;;4.47;2.80;;;;;;;26.10;48.58;99678.41;5035404;28;20802;-78
2021/06/17 07:52:32;;;;;;;3.45;2.47;;;;;;;26.08;48.86;99671.47;5035828;28;20049;-79
2021/06/17 07:54:59;;;;;;;8.90;2.70;;;;;;;26.13;48.07;99683.47;5035598;28;20061;-79
2021/06/17 07:57:26;;;;;;;5.53;2.80;;;;;;;26.03;48.69;99664.72;5035877;28;20054;-78
2021/06/17 07:59:52;;;;;;;9.90;2.90;;;;;;;26.16;48.94;99665.81;5035312;28;20418;-78
2021/06/17 08:02:19;;;;;;;7.40;3.13;;;;;;;26.17;48.38;99671.06;5036921;28;20099;-79
2021/06/17 08:04:46;;;;;;;5.75;2.70;;;;;;;26.20;47.96;99669.78;5035495;28;20050;-78
2021/06/17 08:07:14;;;;;;;4.50;2.38;;;;;;;26.30;48.57;99658.47;5035258;28;20053;-78
2021/06/17 08:09:41;;;;;;;4.82;2.97;;;;;;;26.31;49.29;99660.16;5018680;28;20061;-79
2021/06/17 08:12:08;;;;;;;4.28;2.90;;;;;;;26.36;49.03;99648.59;5036301;28;20053;-78
2021/06/17 08:14:35;;;;;;;4.88;2.90;;;;;;;26.53;48.69;99649.81;5035116;28;20057;-79
2021/06/17 08:17:02;;;;;;;3.60;2.67;;;;;;;26.54;48.84;99637.00;5036111;28;20423;-79
2021/06/17 08:19:31;;;;;;;10.60;3.28;;;;;;;26.73;48.61;99640.75;5031035;28;20052;-79
2021/06/17 08:22:06;;;;;;;4.50;2.42;;;;;;;26.90;48.19;99632.94;5015022;28;20310;-79
2021/06/17 08:24:45;;;;;;;7.80;2.50;;;;;;;27.18;47.70;99641.94;5016005;28;20061;-79
2021/06/17 08:27:12;;;;;;;7.87;3.07;;;;;;;27.37;48.43;99638.28;5015814;28;20049;-79
2021/06/17 08:29:39;;;;;;;5.82;2.78;;;;;;;27.22;46.91;99635.81;5016099;28;20045;-79
2021/06/17 08:32:06;;;;;;;2.95;2.60;;;;;;;27.30;47.32;99631.13;5015999;28;20439;-79
2021/06/17 08:34:33;;;;;;;4.85;3.05;;;;;;;27.44;47.29;99632.75;5017689;28;20054;-79
2021/06/17 08:37:00;;;;;;;4.00;2.38;;;;;;;27.47;47.40;99626.00;5016662;28;20423;-79
2021/06/17 08:39:28;;;;;;;7.38;2.42;;;;;;;27.56;46.88;99623.84;5016169;28;20049;-79
2021/06/17 08:42:00;;;;;;;3.75;2.65;;;;;;;27.57;47.58;99615.44;5015998;28;20057;-79
2021/06/17 08:44:28;;;;;;;7.35;2.60;;;;;;;27.61;46.86;99621.34;5014966;28;20120;-78
2021/06/17 08:46:56;;;;;;;9.13;2.90;;;;;;;27.69;48.03;99612.00;5016145;28;20062;-79
2021/06/17 08:49:24;;;;;;;3.90;2.83;;;;;;;27.52;47.94;99574.94;5015063;28;20057;-79
2021/06/17 08:51:51;;;;;;;8.25;3.42;;;;;;;27.72;47.55;99597.84;5015826;28;20436;-79
2021/06/17 08:54:19;;;;;;;6.75;2.70;;;;;;;27.77;49.21;99607.09;5014978;28;20058;-78
2021/06/17 08:56:49;;;;;;;6.90;3.30;;;;;;;27.82;48.18;99605.59;5016026;28;20062;-78
2021/06/17 08:59:18;;;;;;;14.55;2.83;;;;;;;28.10;47.81;99604.34;5014577;28;20046;-78
2021/06/17 09:01:54;;;;;;;9.63;2.72;;;;;;;28.11;47.00;99565.69;5016142;28;20435;-78
2021/06/17 09:04:25;;;;;;;5.05;3.00;;;;;;;28.51;47.35;99613.91;5016031;28;20399;-78
2021/06/17 09:07:09;;;;;;;9.02;3.10;;;;;;;28.83;45.82;99610.22;5016169;28;20049;-79
2021/06/17 09:09:44;;;;;;;11.10;3.20;;;;;;;28.66;45.62;99599.84;5015533;28;20058;-78
2021/06/17 09:12:17;;;;;;;7.35;3.17;;;;;;;28.83;47.50;99604.72;5030681;28;20054;-78
2021/06/17 09:15:01;;;;;;;17.45;3.72;;;;;;;28.92;46.53;99591.56;5014847;28;20046;-78
2021/06/17 09:17:27;;;;;;;5.57;2.88;;;;;;;28.93;45.76;99585.00;5015696;28;20501;-78
2021/06/17 09:19:54;;;;;;;10.93;3.20;;;;;;;29.08;45.94;99584.59;5015585;28;20096;-78
2021/06/17 09:22:24;;;;;;;5.03;3.05;;;;;;;29.12;44.79;99581.16;5030148;28;20053;-78
2021/06/17 09:24:52;;;;;;;;;;;;;;;29.06;43.53;99578.47;5015965;28;20060;-78
2021/06/17 09:27:31;;;;;;;10.50;3.33;;;;;;;28.97;46.07;99576.06;5015445;28;20307;-79
2021/06/17 09:30:11;;;;;;;7.28;3.20;;;;;;;29.14;45.27;99584.50;5015489;28;20054;-77
2021/06/17 09:32:40;;;;;;;5.70;3.17;;;;;;;29.18;45.35;99586.81;5015441;28;20050;-79
2021/06/17 09:35:23;;;;;;;6.38;3.40;;;;;;;29.20;44.27;99574.50;5014294;28;20061;-79
2021/06/17 09:37:58;;;;;;;5.25;3.50;;;;;;;29.46;43.91;99601.88;5030256;28;20058;-79
2021/06/17 09:40:29;;;;;;;7.03;3.42;;;;;;;29.51;43.69;99602.00;5015059;28;20056;-80
2021/06/17 09:43:13;;;;;;;9.00;3.47;;;;;;;29.62;42.93;99606.72;5015354;28;20049;-79
2021/06/17 09:45:49;;;;;;;11.05;3.80;;;;;;;29.60;43.57;99586.88;5015207;28;20450;-80
2021/06/17 09:48:45;;;;;;;6.18;4.10;;;;;;;29.75;43.32;99613.09;5014851;28;20362;-79
2021/06/17 09:51:21;;;;;;;7.72;3.83;;;;;;;29.75;43.73;99624.09;5015365;28;20068;-77
2021/06/17 09:53:48;;;;;;;10.48;3.90;;;;;;;29.74;44.07;99625.19;5014935;28;20082;-79
2021/06/17 09:56:24;;;;;;;5.90;3.72;;;;;;;29.84;43.01;99616.38;5030318;28;20087;-79
2021/06/17 09:58:51;;;;;;;7.88;4.22;;;;;;;29.92;43.87;99624.28;5014972;28;20058;-79
2021/06/17 10:01:35;;;;;;;9.35;4.60;;;;;;;30.04;42.52;99627.03;5013828;28;20054;-78
2021/06/17 10:04:08;;;;;;;10.43;4.20;;;;;;;30.07;42.79;99629.34;5015388;28;20057;-79
2021/06/17 10:06:37;;;;;;;7.50;4.10;;;;;;;30.06;44.09;99638.69;5019113;28;20061;-80
2021/06/17 10:09:06;;;;;;;5.35;3.70;;;;;;;30.18;43.83;99625.78;5019213;28;20054;-79
2021/06/17 10:11:33;;;;;;;7.80;4.00;;;;;;;30.35;44.19;99641.63;5018472;28;20503;-79
2021/06/17 10:14:02;;;;;;;7.05;4.07;;;;;;;30.37;42.62;99636.69;5017396;28;20136;-79
2021/06/17 10:16:29;;;;;;;6.07;3.75;;;;;;;30.17;44.05;99624.13;5001111;28;20053;-79
2021/06/17 10:18:58;;;;;;;9.70;4.45;;;;;;;30.32;43.87;99653.09;5033810;28;20053;-79
2021/06/17 10:21:27;;;;;;;8.18;4.40;;;;;;;30.31;45.79;99651.41;5018623;28;20139;-79
2021/06/17 10:23:55;;;;;;;7.28;4.05;;;;;;;30.21;45.27;99629.97;5018328;28;20049;-79
2021/06/17 10:26:25;;;;;;;11.50;4.40;;;;;;;30.18;45.30;99613.97;5017591;28;20080;-78
2021/06/17 10:29:00;;;;;;;10.63;4.55;;;;;;;30.43;44.63;99643.16;5018549;28;20409;-79
2021/06/17 10:31:44;;;;;;;6.00;4.18;;;;;;;30.31;43.40;99656.91;5018571;28;20053;-79
2021/06/17 10:34:23;;;;;;;9.95;4.30;;;;;;;30.29;44.18;99654.41;5019024;28;20058;-79
2021/06/17 10:37:05;;;;;;;8.17;4.33;;;;;;;30.16;44.63;99655.47;5018534;28;20053;-79
2021/06/17 10:39:42;;;;;;;9.20;4.18;;;;;;;29.93;45.35;99657.06;5018883;28;20057;-78
2021/06/17 10:42:14;;;;;;;8.20;4.20;;;;;;;29.83;44.12;99651.28;5018667;28;20056;-78
2021/06/17 10:44:47;;;;;;;7.25;4.65;;;;;;;30.06;45.25;99652.44;5018306;28;20049;-79
2021/06/17 10:47:38;;;;;;;11.35;3.88;;;;;;;30.25;45.17;99657.88;5017671;28;20062;-78
2021/06/17 10:50:07;;;;;;;6.68;4.20;;;;;;;30.38;44.43;99652.13;5016930;28;20116;-78
2021/06/17 10:52:35;;;;;;;4.38;3.88;;;;;;;30.48;46.58;99665.31;5017769;28;20045;-78
2021/06/17 10:55:06;;;;;;;9.48;3.55;;;;;;;30.74;43.59;99655.78;5018037;28;20058;-79
2021/06/17 10:57:42;;;;;;;8.25;4.32;;;;;;;30.98;43.45;99658.50;5017854;28;20096;-80
2021/06/17 11:02:57;;;;;;;6.40;3.00;;;;;;;30.98;41.05;99652.19;5017158;28;20053;-81
2021/06/17 11:05:34;;;;;;;8.18;3.78;;;;;;;31.12;41.05;99652.72;5017040;28;20506;-80
2021/06/17 11:08:16;;;;;;;8.68;3.70;;;;;;;31.40;41.68;99657.50;5023422;28;20052;-80
2021/06/17 11:10:52;;;;;;;6.10;3.38;;;;;;;31.52;39.68;99648.31;5035757;28;20076;-79
2021/06/17 11:13:33;;;;;;;6.32;2.80;;;;;;;31.76;38.74;99651.00;5037302;28;20050;-79
2021/06/17 11:16:05;;;;;;;7.20;2.90;;;;;;;31.87;36.78;99649.28;5037297;28;20049;-70
2021/06/17 11:18:41;;;;;;;8.10;2.63;;;;;;;31.92;36.56;99655.72;5036846;28;20056;-78
2021/06/17 11:21:26;;;;;;;7.70;2.83;;;;;;;32.04;36.80;99654.81;5017502;28;20041;-77
2021/06/17 11:23:54;;;;;;;11.45;2.88;;;;;;;31.97;35.64;99660.53;5016684;28;20085;-77
2021/06/17 11:26:47;;;;;;;8.07;2.42;;;;;;;32.07;36.05;99676.44;5017263;28;20403;-79
2021/06/17 11:29:48;;;;;;;5.45;2.42;;;;;;;32.19;35.53;99668.88;5016316;28;20053;-79
2021/06/17 11:32:41;;;;;;;8.25;2.47;;;;;;;32.46;35.85;99670.19;5015786;28;20387;-79
2021/06/17 11:35:21;;;;;;;12.32;2.47;;;;;;;32.51;34.61;99673.00;5015833;28;20111;-81
2021/06/17 11:37:48;;;;;;;4.47;2.33;;;;;;;32.48;35.07;99674.38;5016693;28;20053;-78
2021/06/17 11:40:17;;;;;;;6.70;2.42;;;;;;;32.63;34.32;99673.75;5016736;28;20096;-80
2021/06/17 11:42:44;;;;;;;11.75;2.50;;;;;;;32.88;34.79;99668.88;5016465;28;20443;-79
2021/06/17 11:45:11;;;;;;;6.18;2.50;;;;;;;32.95;34.72;99668.72;5015849;28;20057;-80
2021/06/17 11:47:46;;;;;;;7.70;2.78;;;;;;;32.98;34.27;99662.69;5015951;28;20053;-78
2021/06/17 11:50:13;;;;;;;7.80;2.45;;;;;;;33.03;34.22;99666.38;5015007;28;20141;-80
2021/06/17 11:52:42;;;;;;;7.65;2.25;;;;;;;33.22;34.37;99667.97;5015147;28;20410;-79
2021/06/17 11:55:09;;;;;;;9.25;2.17;;;;;;;33.09;34.00;99663.66;5015212;28;20100;-79